Time;durP1;ratioP1;P1;durP2;ratioP2;P2;SDS_P1;SDS_P2;PMS_P1;PMS_P2;Temp;Humidity;BMP_temperature;BMP_pressure;BME280_temperature;BME280_humidity;BME280_pressure;Samples;Min_cycle;Max_cycle;Signal;HPM_P1;HPM_P2
2022/11/05 00:10:09;;;;;;;12.68;8.88;;;;;;;10.97;93.55;99646.53;4915207;28;20457;-88
2022/11/05 00:18:07;;;;;;;11.43;6.60;;;;;;;10.95;94.14;99652.97;4902905;28;20051;-88
2022/11/05 00:20:33;;;;;;;14.32;7.22;;;;;;;10.98;94.10;99655.34;4949163;28;20507;-89
2022/11/05 00:25:56;;;;;;;13.27;7.78;;;;;;;10.92;94.39;99655.94;4930006;28;20071;-88
2022/11/05 00:28:24;;;;;;;13.82;7.68;;;;;;;10.95;94.68;99666.25;4931402;28;20051;-88
2022/11/05 00:30:51;;;;;;;11.77;6.95;;;;;;;10.95;94.75;99660.94;4935765;28;20046;-88
2022/11/05 00:33:18;;;;;;;13.45;7.90;;;;;;;10.97;94.56;99659.81;4968497;28;20043;-88
2022/11/05 00:35:45;;;;;;;14.90;7.95;;;;;;;10.99;94.92;99664.97;4972420;28;20046;-88
2022/11/05 00:38:12;;;;;;;11.77;7.82;;;;;;;10.99;94.61;99660.53;4985025;28;20501;-88
2022/11/05 00:40:39;;;;;;;11.82;8.27;;;;;;;10.99;94.92;99663.19;4974088;28;20042;-88
2022/11/05 00:45:51;;;;;;;10.80;6.78;;;;;;;10.97;95.60;99670.44;4960175;28;20054;-87
2022/11/05 00:51:04;;;;;;;13.75;7.38;;;;;;;10.96;95.28;99671.41;4938052;28;20043;-88
2022/11/05 00:53:31;;;;;;;11.45;7.80;;;;;;;10.96;95.47;99682.03;4920127;28;20372;-88
2022/11/05 00:55:59;;;;;;;11.15;7.03;;;;;;;10.99;95.45;99676.47;4963841;28;20066;-88
2022/11/05 00:58:28;;;;;;;12.13;6.75;;;;;;;10.99;95.23;99672.94;4955266;28;20089;-89
2022/11/05 01:00:57;;;;;;;8.50;6.28;;;;;;;11.01;95.14;99673.66;4971893;28;20057;-88
2022/11/05 01:03:32;;;;;;;10.82;6.43;;;;;;;10.99;95.43;99679.13;4972497;28;20463;-88
2022/11/05 01:06:07;;;;;;;6.70;5.70;;;;;;;10.95;95.21;99685.69;4971339;28;20043;-88
2022/11/05 01:08:34;;;;;;;8.63;5.88;;;;;;;10.99;95.41;99683.56;4984044;28;20830;-89
2022/11/05 01:11:31;;;;;;;8.95;6.45;;;;;;;10.96;95.52;99678.56;4968498;28;20116;-88
2022/11/05 01:14:09;;;;;;;8.18;6.78;;;;;;;10.88;96.01;99692.53;4981171;28;20089;-88
2022/11/05 01:16:37;;;;;;;10.77;6.90;;;;;;;10.96;95.80;99690.00;4944532;28;20066;-89
2022/11/05 01:19:05;;;;;;;8.98;5.97;;;;;;;10.98;95.42;99693.38;4949950;28;20053;-89
2022/11/05 01:21:32;;;;;;;10.85;5.80;;;;;;;10.98;95.69;99693.38;4946401;28;20117;-88
2022/11/05 01:24:00;;;;;;;7.13;5.47;;;;;;;10.95;96.05;99693.66;4945853;28;20047;-87
2022/11/05 01:26:26;;;;;;;10.52;6.60;;;;;;;10.98;96.26;99701.34;4947476;28;20050;-87
2022/11/05 01:28:54;;;;;;;7.88;6.38;;;;;;;11.01;95.48;99701.06;4937049;28;20054;-88
2022/11/05 01:31:22;;;;;;;10.02;7.07;;;;;;;11.00;95.62;99709.19;4948182;28;20043;-88
2022/11/05 01:33:49;;;;;;;8.70;6.78;;;;;;;11.02;95.36;99713.38;4985708;28;20050;-88
2022/11/05 01:36:16;;;;;;;9.13;6.55;;;;;;;11.00;95.48;99712.69;4927090;28;20113;-89
2022/11/05 01:38:43;;;;;;;10.15;7.03;;;;;;;11.01;95.76;99710.84;4960410;28;20062;-88
2022/11/05 01:41:10;;;;;;;11.43;7.10;;;;;;;10.99;96.34;99718.13;4950296;28;20078;-88
2022/11/05 01:43:53;;;;;;;10.63;6.85;;;;;;;10.91;96.48;99718.81;4984314;28;20074;-89
2022/11/05 01:46:26;;;;;;;11.15;7.78;;;;;;;10.98;95.83;99717.28;4996721;28;20490;-88
2022/11/05 01:48:53;;;;;;;9.00;6.82;;;;;;;10.97;96.33;99718.28;4934658;28;20046;-88
2022/11/05 01:51:28;;;;;;;10.40;7.18;;;;;;;11.00;96.10;99718.00;4991792;28;20046;-88
2022/11/05 01:54:02;;;;;;;9.02;6.53;;;;;;;10.93;96.69;99716.88;4985684;28;20108;-87
2022/11/05 01:56:33;;;;;;;9.57;6.93;;;;;;;10.98;96.34;99717.28;4952995;28;20120;-87
2022/11/05 01:59:03;;;;;;;12.07;6.78;;;;;;;10.98;96.65;99716.44;4984794;28;20057;-89
2022/11/05 02:01:30;;;;;;;10.05;7.10;;;;;;;10.99;96.37;99723.44;4928949;28;20047;-87
2022/11/05 02:04:00;;;;;;;10.55;7.38;;;;;;;10.98;96.17;99721.75;4962620;28;20462;-87
2022/11/05 02:06:28;;;;;;;10.02;7.13;;;;;;;10.97;96.55;99718.28;4965292;28;20115;-87
2022/11/05 02:09:08;;;;;;;12.80;7.30;;;;;;;11.00;96.51;99725.97;4972231;28;20045;-87
2022/11/05 02:11:34;;;;;;;10.70;6.75;;;;;;;10.98;96.78;99729.72;4972876;28;20046;-87
2022/11/05 02:14:01;;;;;;;11.18;7.75;;;;;;;10.96;97.02;99735.19;4966464;28;20087;-87
2022/11/05 02:17:01;;;;;;;11.02;7.20;;;;;;;10.83;97.72;99740.78;4968853;28;20066;-87
2022/11/05 02:19:47;;;;;;;13.57;7.53;;;;;;;10.93;97.51;99740.78;4921124;28;20406;-87
2022/11/05 02:22:48;;;;;;;13.25;8.35;;;;;;;10.92;97.40;99749.75;4940648;28;20043;-87
2022/11/05 02:25:36;;;;;;;14.68;9.50;;;;;;;10.88;97.19;99745.66;4861992;28;20513;-87
2022/11/05 02:28:15;;;;;;;14.80;9.85;;;;;;;10.90;96.75;99738.41;4973130;28;20117;-88
2022/11/05 02:30:46;;;;;;;16.55;9.90;;;;;;;10.98;96.61;99741.19;4902841;28;20047;-87
2022/11/05 02:33:33;;;;;;;17.35;10.30;;;;;;;10.91;96.53;99742.72;4911143;28;20047;-87
2022/11/05 02:36:15;;;;;;;19.63;10.68;;;;;;;10.89;96.31;99749.16;4924386;28;20055;-87
2022/11/05 02:39:02;;;;;;;19.17;11.40;;;;;;;10.93;96.17;99750.56;4918469;28;20612;-87
2022/11/05 02:41:40;;;;;;;20.27;11.13;;;;;;;10.91;96.24;99741.91;4956624;28;20090;-87
2022/11/05 02:44:21;;;;;;;20.80;12.65;;;;;;;10.92;95.47;99747.09;4954266;28;20387;-87
2022/11/05 02:47:24;;;;;;;17.55;12.15;;;;;;;10.81;96.24;99748.06;4916410;28;20506;-86
2022/11/05 02:49:53;;;;;;;18.65;11.98;;;;;;;10.94;95.81;99746.94;4929356;28;20517;-87
2022/11/05 02:52:24;;;;;;;20.00;12.13;;;;;;;10.93;95.98;99746.09;4949136;28;20083;-87
2022/11/05 02:54:53;;;;;;;19.25;11.60;;;;;;;10.95;95.93;99746.78;4976527;28;20117;-87
2022/11/05 02:57:21;;;;;;;17.55;11.70;;;;;;;10.94;95.83;99742.47;4966572;28;20038;-87
2022/11/05 02:59:48;;;;;;;18.83;12.68;;;;;;;10.90;96.32;99742.88;4966884;28;20132;-87
2022/11/05 03:02:15;;;;;;;21.35;12.50;;;;;;;10.89;96.12;99741.19;4969885;28;20101;-88
2022/11/05 03:04:41;;;;;;;21.83;11.95;;;;;;;10.90;96.17;99749.03;4983769;28;20063;-87
2022/11/05 03:07:30;;;;;;;19.40;11.70;;;;;;;10.73;96.53;99750.56;4953496;28;20487;-87
2022/11/05 03:10:34;;;;;;;22.15;11.77;;;;;;;10.74;96.28;99752.25;4924927;28;20077;-87
2022/11/05 03:13:16;;;;;;;17.30;10.82;;;;;;;10.76;96.06;99760.06;4916746;28;20109;-87
2022/11/05 03:15:55;;;;;;;19.50;12.15;;;;;;;10.77;96.03;99762.59;4939383;28;20078;-87
2022/11/05 03:18:25;;;;;;;18.33;11.57;;;;;;;10.83;96.03;99761.19;4932936;28;20410;-86
2022/11/05 03:21:05;;;;;;;18.95;10.85;;;;;;;10.76;96.38;99773.34;4949427;28;20113;-86
2022/11/05 03:23:41;;;;;;;17.83;11.73;;;;;;;10.76;96.60;99765.38;4963499;28;20049;-86
2022/11/05 03:26:17;;;;;;;21.05;12.30;;;;;;;10.78;96.51;99777.53;4987302;28;20050;-86
2022/11/05 03:28:58;;;;;;;21.58;11.70;;;;;;;10.79;96.50;99781.06;4945314;28;20494;-87
2022/11/05 03:31:26;;;;;;;19.60;11.57;;;;;;;10.85;96.48;99788.47;4963847;28;20542;-87
2022/11/05 03:33:53;;;;;;;22.23;12.63;;;;;;;10.81;96.85;99789.69;4948443;28;20047;-87
2022/11/05 03:36:33;;;;;;;21.13;12.30;;;;;;;10.74;96.78;99794.75;4957287;28;20066;-87
2022/11/05 03:39:02;;;;;;;20.42;11.63;;;;;;;10.81;96.74;99795.88;4951630;28;20114;-87
2022/11/05 03:41:32;;;;;;;19.65;12.27;;;;;;;10.80;96.92;99802.16;4952510;28;20042;-86
2022/11/05 03:44:02;;;;;;;20.73;12.50;;;;;;;10.82;96.78;99799.38;4954944;28;20050;-86
2022/11/05 03:46:31;;;;;;;21.52;12.15;;;;;;;10.83;96.67;99807.19;4943683;28;20097;-87
2022/11/05 03:49:00;;;;;;;19.80;11.90;;;;;;;10.83;96.76;99807.19;4956238;28;20047;-87
2022/11/05 03:51:39;;;;;;;20.30;11.57;;;;;;;10.78;96.35;99812.06;4965836;28;20039;-86
2022/11/05 03:54:06;;;;;;;18.60;11.35;;;;;;;10.87;96.24;99810.41;4957523;28;20065;-87
2022/11/05 03:56:47;;;;;;;20.77;10.40;;;;;;;10.83;96.12;99819.63;4972649;28;20042;-87
2022/11/05 03:59:15;;;;;;;17.35;11.05;;;;;;;10.88;96.13;99817.41;4981028;28;20116;-87
2022/11/05 04:01:41;;;;;;;16.35;10.65;;;;;;;10.89;96.13;99826.19;4984631;28;20113;-86
2022/11/05 04:04:08;;;;;;;14.70;9.65;;;;;;;10.89;96.07;99826.19;4969295;28;20050;-88
2022/11/05 04:14:53;;;;;;;25.02;11.75;;;;;;;10.85;96.28;99837.09;4927158;28;20042;-87
2022/11/05 04:17:19;;;;;;;15.90;10.43;;;;;;;10.85;96.16;99837.09;4967627;28;20114;-88
2022/11/05 04:25:20;;;;;;;18.77;10.52;;;;;;;10.82;96.43;99836.56;4965356;28;20450;-88
2022/11/05 04:27:47;;;;;;;16.08;10.30;;;;;;;10.84;96.37;99846.06;4973175;28;20133;-87
2022/11/05 04:30:18;;;;;;;19.45;10.85;;;;;;;10.85;95.60;99838.94;4938140;28;20042;-87
2022/11/05 04:33:09;;;;;;;18.27;10.43;;;;;;;10.77;95.84;99839.63;4952653;28;20050;-87
2022/11/05 04:35:47;;;;;;;16.90;9.82;;;;;;;10.80;94.94;99849.97;4931499;28;20065;-88
2022/11/05 04:38:16;;;;;;;16.65;10.02;;;;;;;10.88;94.67;99841.31;4947901;28;20054;-86
2022/11/05 04:40:43;;;;;;;14.60;8.70;;;;;;;10.89;94.52;99848.31;4943710;28;20461;-87
2022/11/05 04:43:15;;;;;;;16.50;9.32;;;;;;;10.84;94.53;99855.84;4952716;28;20054;-87
2022/11/05 04:45:47;;;;;;;14.73;9.40;;;;;;;10.81;92.69;99851.66;4950720;28;20091;-87
2022/11/05 04:48:14;;;;;;;13.30;8.60;;;;;;;10.89;93.32;99861.59;4980340;28;20048;-88
2022/11/05 04:50:41;;;;;;;16.23;9.43;;;;;;;10.86;94.26;99853.88;4968419;28;20110;-88
2022/11/05 04:53:08;;;;;;;13.95;8.90;;;;;;;10.85;93.83;99861.00;4949005;28;20503;-87
2022/11/05 04:55:35;;;;;;;13.30;8.55;;;;;;;10.85;93.50;99858.34;4933195;28;20070;-86
2022/11/05 04:58:01;;;;;;;13.68;8.73;;;;;;;10.81;92.75;99862.28;4925651;28;20058;-87
2022/11/05 05:00:28;;;;;;;11.55;7.55;;;;;;;10.83;92.52;99857.66;4956850;28;20380;-87
2022/11/05 05:02:55;;;;;;;9.82;6.28;;;;;;;10.86;92.36;99869.81;4962189;28;20486;-87
2022/11/05 05:05:22;;;;;;;11.70;5.85;;;;;;;10.86;91.64;99861.84;4944114;28;20438;-87
2022/11/05 05:07:48;;;;;;;10.82;6.88;;;;;;;10.86;91.79;99873.34;4918977;28;20050;-87
2022/11/05 05:10:15;;;;;;;9.60;6.15;;;;;;;10.85;92.05;99876.13;4950665;28;20058;-87
2022/11/05 05:12:42;;;;;;;10.98;6.63;;;;;;;10.81;92.79;99874.69;4947651;28;20126;-88
2022/11/05 05:15:09;;;;;;;11.23;6.93;;;;;;;10.85;92.23;99876.13;4954236;28;20042;-87
2022/11/05 05:17:36;;;;;;;14.02;7.88;;;;;;;10.85;93.09;99884.09;4985271;28;20100;-87
2022/11/05 05:22:52;;;;;;;10.65;7.13;;;;;;;10.78;93.92;99886.44;4945176;28;20109;-87
2022/11/05 05:25:19;;;;;;;12.23;6.90;;;;;;;10.79;94.14;99893.44;4953242;28;20391;-88
2022/11/05 05:27:46;;;;;;;8.57;4.82;;;;;;;10.82;93.03;99895.00;4959263;28;20054;-88
2022/11/05 05:30:12;;;;;;;7.22;5.00;;;;;;;10.78;93.06;99905.03;4950029;28;20043;-88
2022/11/05 05:32:39;;;;;;;12.90;6.15;;;;;;;10.82;92.41;99906.47;4934665;28;20422;-88
2022/11/05 05:35:06;;;;;;;10.13;5.53;;;;;;;10.83;92.84;99894.00;4951876;28;20046;-88
2022/11/05 05:37:33;;;;;;;11.68;6.65;;;;;;;10.82;93.06;99900.31;4936519;28;20043;-87
2022/11/05 05:39:59;;;;;;;11.10;6.63;;;;;;;10.81;93.40;99891.50;4982141;28;20061;-87
2022/11/05 05:42:26;;;;;;;11.35;6.95;;;;;;;10.81;93.89;99903.91;4963510;28;20049;-88
2022/11/05 05:44:53;;;;;;;12.73;7.03;;;;;;;10.77;94.02;99902.53;4976140;28;20482;-87
2022/11/05 05:47:20;;;;;;;11.15;6.95;;;;;;;10.78;93.80;99904.19;4965907;28;20069;-86
2022/11/05 05:49:47;;;;;;;10.85;6.88;;;;;;;10.78;93.75;99906.84;4949336;28;20049;-88
2022/11/05 05:52:13;;;;;;;11.35;6.68;;;;;;;10.77;93.99;99913.16;4967707;28;20109;-88
2022/11/05 05:54:40;;;;;;;11.35;6.30;;;;;;;10.75;94.13;99917.75;4969886;28;22241;-87
2022/11/05 05:57:08;;;;;;;9.20;6.45;;;;;;;10.76;94.02;99914.97;4980126;28;20042;-87
2022/11/05 05:59:35;;;;;;;11.20;6.55;;;;;;;10.74;94.08;99919.56;4982962;28;20042;-87
2022/11/05 06:02:02;;;;;;;10.63;6.45;;;;;;;10.73;94.06;99925.84;4982038;28;20057;-86
2022/11/05 06:04:29;;;;;;;12.30;5.90;;;;;;;10.73;94.07;99928.50;4970747;28;20049;-87
2022/11/05 06:06:56;;;;;;;8.15;5.45;;;;;;;10.73;93.53;99935.63;4960607;28;20054;-87
2022/11/05 06:09:22;;;;;;;9.00;5.70;;;;;;;10.72;93.76;99932.16;4982194;28;21080;-87
2022/11/05 06:11:49;;;;;;;9.07;5.03;;;;;;;10.71;93.82;99941.09;4935578;28;20561;-89
2022/11/05 06:14:16;;;;;;;7.68;4.78;;;;;;;10.70;93.49;99939.41;4966308;28;20053;-88
2022/11/05 06:16:43;;;;;;;10.90;5.40;;;;;;;10.71;93.41;99941.09;4936093;28;20047;-87
2022/11/05 06:19:09;;;;;;;10.45;5.45;;;;;;;10.72;93.39;99952.56;4958237;28;20090;-88
2022/11/05 06:21:36;;;;;;;7.53;4.85;;;;;;;10.72;93.56;99958.69;4935727;28;20081;-88
2022/11/05 06:24:03;;;;;;;8.40;5.20;;;;;;;10.72;93.56;99960.53;4951720;28;20046;-88
2022/11/05 06:26:30;;;;;;;10.27;5.82;;;;;;;10.71;93.39;99967.66;4961064;28;20457;-87
2022/11/05 06:28:57;;;;;;;8.77;6.15;;;;;;;10.68;93.57;99965.25;4989808;28;20108;-87
2022/11/05 06:31:24;;;;;;;9.05;5.68;;;;;;;10.70;93.44;99968.63;4987168;28;20121;-87
2022/11/05 06:33:50;;;;;;;9.90;6.25;;;;;;;10.69;93.48;99968.75;4965529;28;20105;-87
2022/11/05 06:36:18;;;;;;;10.55;6.28;;;;;;;10.71;93.16;99977.41;4988489;28;20057;-87
2022/11/05 06:38:45;;;;;;;10.50;6.13;;;;;;;10.65;93.58;99970.81;4990403;28;20054;-87
2022/11/05 06:41:12;;;;;;;14.25;6.80;;;;;;;10.64;93.92;99979.78;4951637;28;20065;-88
2022/11/05 06:43:39;;;;;;;10.70;6.72;;;;;;;10.62;94.03;99982.56;4991780;28;20046;-87
2022/11/05 06:46:06;;;;;;;11.48;6.07;;;;;;;10.63;93.96;99981.59;5007087;28;20069;-87
2022/11/05 06:48:33;;;;;;;8.60;5.88;;;;;;;10.63;94.21;99989.56;5001358;28;20525;-87
2022/11/05 06:50:59;;;;;;;11.90;6.20;;;;;;;10.61;94.46;100004.78;4984858;28;20073;-88
2022/11/05 06:53:26;;;;;;;11.50;6.57;;;;;;;10.59;94.94;100008.53;5006059;28;20108;-87
2022/11/05 06:55:53;;;;;;;12.00;6.00;;;;;;;10.62;94.70;100008.28;4989447;28;20046;-87
2022/11/05 06:58:20;;;;;;;8.00;5.40;;;;;;;10.60;94.96;100007.56;4982584;28;20050;-87
2022/11/05 07:00:47;;;;;;;11.05;6.55;;;;;;;10.62;94.90;100014.41;4983937;28;20050;-85
2022/11/05 07:03:14;;;;;;;11.18;6.00;;;;;;;10.63;95.03;100024.09;4984754;28;20045;-85
2022/11/05 07:05:46;;;;;;;10.57;6.93;;;;;;;10.61;94.78;100027.84;4990822;28;20050;-85
2022/11/05 07:08:13;;;;;;;13.00;6.30;;;;;;;10.65;95.11;100024.78;4974561;28;20894;-85
2022/11/05 07:10:39;;;;;;;11.07;7.03;;;;;;;10.68;94.82;100033.47;4990282;28;20038;-85
2022/11/05 07:13:06;;;;;;;12.88;7.07;;;;;;;10.65;95.19;100031.91;4955928;28;20046;-85
2022/11/05 07:15:35;;;;;;;10.35;6.65;;;;;;;10.69;95.29;100038.66;4986613;28;20518;-85
2022/11/05 07:18:02;;;;;;;11.70;5.82;;;;;;;10.68;95.08;100039.59;4971805;28;20050;-85
2022/11/05 07:20:29;;;;;;;10.95;5.72;;;;;;;10.71;95.20;100042.03;4985257;28;20498;-84
2022/11/05 07:23:04;;;;;;;10.93;5.82;;;;;;;10.69;95.24;100038.66;4977455;28;20050;-85
2022/11/05 07:25:31;;;;;;;10.50;6.60;;;;;;;10.74;95.19;100043.56;4987046;28;20101;-85
2022/11/05 07:27:59;;;;;;;13.95;7.20;;;;;;;10.72;95.18;100053.47;4985969;28;20560;-85
2022/11/05 07:30:25;;;;;;;12.43;8.20;;;;;;;10.74;95.25;100060.34;4969069;28;20038;-84
2022/11/05 07:32:52;;;;;;;15.50;8.38;;;;;;;10.77;94.73;100062.72;4971205;28;20140;-85
2022/11/05 07:35:19;;;;;;;17.83;8.07;;;;;;;10.79;94.51;100066.09;4963829;28;20376;-84
2022/11/05 07:37:48;;;;;;;11.65;7.80;;;;;;;10.81;94.37;100069.47;4980663;28;20039;-84
2022/11/05 07:40:16;;;;;;;11.57;7.15;;;;;;;10.81;94.59;100073.94;4972336;28;20089;-84
2022/11/05 07:42:47;;;;;;;13.50;7.03;;;;;;;10.81;94.55;100085.41;4988846;28;20556;-84
2022/11/05 07:45:14;;;;;;;11.68;6.38;;;;;;;10.81;94.43;100081.88;4957428;28;20057;-84
2022/11/05 07:47:49;;;;;;;10.05;6.57;;;;;;;10.77;94.25;100088.47;4987818;28;20053;-84
2022/11/05 07:50:18;;;;;;;9.30;6.28;;;;;;;10.85;93.58;100089.47;4951224;28;20372;-84
2022/11/05 07:52:46;;;;;;;12.98;6.75;;;;;;;10.82;93.92;100092.41;4952143;28;20376;-85
2022/11/05 07:55:14;;;;;;;11.20;6.32;;;;;;;10.87;93.69;100092.00;4963990;28;20058;-84
2022/11/05 07:57:46;;;;;;;12.73;6.93;;;;;;;10.83;93.63;100095.91;4973567;28;20561;-84
2022/11/05 08:00:15;;;;;;;12.00;6.50;;;;;;;10.90;94.01;100101.53;4988714;28;20054;-85
2022/11/05 08:02:42;;;;;;;11.23;6.45;;;;;;;10.90;93.81;100101.53;4973204;28;20054;-85
2022/11/05 08:05:09;;;;;;;12.90;7.35;;;;;;;10.92;93.93;100107.56;4952951;28;20502;-84
2022/11/05 08:07:36;;;;;;;14.70;6.93;;;;;;;10.95;93.84;100108.13;4989048;28;20042;-84
2022/11/05 08:10:03;;;;;;;12.68;7.57;;;;;;;10.99;93.59;100117.53;4984088;28;20046;-84
2022/11/05 08:12:31;;;;;;;15.73;8.05;;;;;;;11.00;93.74;100116.56;4974262;28;20163;-82
2022/11/05 08:14:57;;;;;;;9.50;6.82;;;;;;;10.98;93.75;100118.50;4984301;28;20054;-82
2022/11/05 08:17:24;;;;;;;12.30;8.18;;;;;;;10.99;93.75;100124.63;4969593;28;20093;-82
2022/11/05 08:19:51;;;;;;;10.45;6.85;;;;;;;11.00;93.49;100129.00;4992824;28;20489;-82
2022/11/05 08:22:17;;;;;;;12.68;7.65;;;;;;;11.01;93.24;100128.00;4964707;28;20568;-82
2022/11/05 08:24:44;;;;;;;12.52;7.85;;;;;;;11.02;93.95;100135.03;4987858;28;20460;-82
2022/11/05 08:27:11;;;;;;;16.35;7.72;;;;;;;11.03;93.47;100132.22;5000675;28;20498;-82
2022/11/05 08:29:37;;;;;;;12.32;7.93;;;;;;;11.07;93.39;100132.81;4965971;28;20093;-82
2022/11/05 08:32:04;;;;;;;11.27;7.72;;;;;;;11.06;93.53;100137.28;4983612;28;20046;-82
2022/11/05 08:34:31;;;;;;;15.50;7.90;;;;;;;11.08;93.59;100140.66;4981978;28;20105;-82
2022/11/05 08:36:59;;;;;;;14.40;7.35;;;;;;;11.09;93.49;100136.16;4983705;28;20096;-82
2022/11/05 08:39:26;;;;;;;12.07;8.18;;;;;;;11.09;93.62;100136.16;4982547;28;20055;-82
2022/11/05 08:41:53;;;;;;;14.55;8.23;;;;;;;11.11;93.52;100138.69;4985143;28;20130;-82
2022/11/05 08:44:20;;;;;;;17.92;7.75;;;;;;;11.10;93.56;100143.19;4987007;28;20431;-82
2022/11/05 08:46:47;;;;;;;12.35;7.80;;;;;;;11.11;93.47;100146.69;4974961;28;20169;-82
2022/11/05 08:49:13;;;;;;;13.13;8.02;;;;;;;11.12;93.43;100143.03;4982201;28;20498;-82
2022/11/05 08:51:40;;;;;;;12.55;8.25;;;;;;;11.13;93.44;100144.72;4986784;28;20050;-82
2022/11/05 08:54:06;;;;;;;16.25;8.15;;;;;;;11.11;93.45;100142.19;4991377;28;20043;-82
2022/11/05 08:56:33;;;;;;;13.40;7.93;;;;;;;11.13;93.40;100150.06;4989313;28;20097;-82
2022/11/05 08:59:00;;;;;;;12.07;7.22;;;;;;;11.12;93.33;100151.88;4984616;28;20046;-82
2022/11/05 09:01:27;;;;;;;12.60;7.03;;;;;;;11.12;93.30;100159.84;4987960;28;20058;-82
2022/11/05 09:03:53;;;;;;;12.40;7.50;;;;;;;11.11;93.17;100149.34;4985739;28;20138;-82
2022/11/05 09:06:20;;;;;;;10.75;6.60;;;;;;;11.07;93.36;100152.25;4986636;28;20042;-83
2022/11/05 09:08:47;;;;;;;9.82;6.22;;;;;;;11.08;93.10;100158.41;4981082;28;20050;-83
2022/11/05 09:11:13;;;;;;;10.57;6.07;;;;;;;11.07;93.12;100160.22;4972220;28;20487;-82
2022/11/05 09:13:40;;;;;;;8.80;5.05;;;;;;;11.07;92.88;100173.53;4988451;28;20041;-83
2022/11/05 09:16:18;;;;;;;8.00;4.97;;;;;;;11.03;92.98;100168.59;4967311;28;20050;-81
2022/11/05 09:18:44;;;;;;;9.68;5.07;;;;;;;11.01;93.17;100174.03;4972128;28;20046;-81
2022/11/05 09:21:11;;;;;;;6.97;4.25;;;;;;;11.01;92.97;100170.53;4984472;28;20387;-83
2022/11/05 09:23:38;;;;;;;7.55;4.28;;;;;;;11.04;92.75;100175.56;4995608;28;20520;-83
2022/11/05 09:26:05;;;;;;;7.68;4.72;;;;;;;11.05;92.48;100175.47;4964060;28;20046;-83
2022/11/05 09:28:32;;;;;;;7.53;4.32;;;;;;;11.01;92.96;100179.34;4983027;28;20116;-83
2022/11/05 09:30:59;;;;;;;8.48;5.07;;;;;;;11.02;92.75;100175.72;4982745;28;20076;-83
2022/11/05 09:33:26;;;;;;;8.85;5.28;;;;;;;11.04;92.71;100188.88;4981431;28;20050;-84
2022/11/05 09:35:53;;;;;;;10.95;6.00;;;;;;;11.04;92.48;100184.41;4980075;28;20520;-81
2022/11/05 09:38:20;;;;;;;9.23;5.63;;;;;;;11.06;92.02;100190.41;4993231;28;20054;-81
2022/11/05 09:41:03;;;;;;;10.60;6.43;;;;;;;11.03;91.62;100179.22;4982513;28;20050;-81
2022/11/05 09:43:35;;;;;;;9.75;5.65;;;;;;;11.06;91.74;100179.78;4967783;28;20046;-81
2022/11/05 09:46:07;;;;;;;12.38;7.35;;;;;;;11.03;91.43;100185.38;4987428;28;20664;-82
2022/11/05 09:48:34;;;;;;;11.30;6.88;;;;;;;11.07;91.81;100184.16;4948835;28;20553;-83
2022/11/05 09:51:03;;;;;;;11.75;6.88;;;;;;;11.08;91.49;100196.47;4964445;28;20113;-83
2022/11/05 09:53:30;;;;;;;16.02;7.47;;;;;;;11.09;91.10;100189.31;4974232;28;20066;-83
2022/11/05 09:55:59;;;;;;;12.57;6.85;;;;;;;11.08;90.85;100201.78;4986337;28;20045;-83
2022/11/05 09:58:38;;;;;;;13.60;8.18;;;;;;;11.10;91.16;100214.94;4991334;28;20089;-83
2022/11/05 10:01:11;;;;;;;16.25;7.82;;;;;;;11.08;90.99;100215.06;4966440;28;20050;-83
2022/11/05 10:03:44;;;;;;;16.88;7.78;;;;;;;11.03;91.27;100217.25;4954636;28;20057;-84
2022/11/05 10:06:12;;;;;;;;;;;;;;;10.88;91.26;100228.34;5000249;28;20390;-83
2022/11/05 10:08:43;;;;;;;11.50;6.60;;;;;;;11.00;91.00;100228.16;4996400;28;20007;-84
2022/11/05 10:11:16;;;;;;;11.82;6.45;;;;;;;11.03;90.82;100227.88;4985959;28;20100;-83
2022/11/05 10:13:46;;;;;;;12.45;7.18;;;;;;;11.10;90.51;100227.41;4990141;28;20049;-83
2022/11/05 10:16:26;;;;;;;17.33;8.32;;;;;;;11.07;90.40;100221.34;4968251;28;20061;-83
2022/11/05 10:19:00;;;;;;;16.67;8.32;;;;;;;11.07;90.89;100220.53;4982460;28;20045;-84
2022/11/05 10:21:26;;;;;;;15.82;8.57;;;;;;;11.15;90.70;100230.50;4989819;28;20046;-84
2022/11/05 10:24:15;;;;;;;15.43;8.38;;;;;;;11.16;90.82;100229.53;4999016;28;20054;-83
2022/11/05 10:26:45;;;;;;;19.52;8.05;;;;;;;11.14;89.83;100232.28;4981729;28;20699;-83
2022/11/05 10:29:22;;;;;;;15.02;7.43;;;;;;;11.12;89.79;100236.06;4971700;28;20113;-84
2022/11/05 10:31:52;;;;;;;19.48;8.15;;;;;;;11.13;90.05;100233.28;4989937;28;20046;-83
2022/11/05 10:34:20;;;;;;;16.30;8.25;;;;;;;11.12;88.46;100238.72;4981678;28;20493;-83
2022/11/05 10:36:47;;;;;;;16.10;8.00;;;;;;;11.13;88.41;100241.25;4994926;28;20533;-83
2022/11/05 10:39:16;;;;;;;14.60;7.22;;;;;;;11.13;88.23;100246.56;4996032;28;20077;-83
2022/11/05 10:42:07;;;;;;;17.00;7.60;;;;;;;11.13;88.14;100243.91;4992389;28;20482;-83
2022/11/05 10:44:40;;;;;;;17.92;8.68;;;;;;;11.13;87.59;100251.03;4970977;28;20046;-83
2022/11/05 10:47:36;;;;;;;16.70;7.43;;;;;;;11.11;87.27;100255.66;4988758;28;20196;-84
2022/11/05 10:50:11;;;;;;;15.38;7.45;;;;;;;11.13;87.34;100259.03;4946656;28;20074;-83
2022/11/05 10:52:50;;;;;;;15.52;7.38;;;;;;;11.08;87.54;100257.56;4968718;28;20051;-83
2022/11/05 10:55:30;;;;;;;17.52;7.65;;;;;;;11.11;88.02;100258.31;4996859;28;20070;-83
2022/11/05 10:58:23;;;;;;;14.23;7.32;;;;;;;11.09;87.56;100253.09;4975028;28;20114;-84
2022/11/05 11:00:50;;;;;;;16.17;7.93;;;;;;;11.18;88.59;100249.69;4904663;29;20630;-83
2022/11/05 11:03:50;;;;;;;17.42;7.80;;;;;;;11.13;88.63;100253.69;4929781;28;20163;-83
2022/11/05 11:06:26;;;;;;;23.15;8.93;;;;;;;11.23;89.00;100252.78;4884250;29;20060;-83
2022/11/05 11:08:56;;;;;;;17.85;8.25;;;;;;;11.25;88.60;100250.03;4911488;29;20047;-83
2022/11/05 11:11:29;;;;;;;15.38;8.63;;;;;;;11.27;88.51;100253.38;4891265;29;20052;-83
2022/11/05 11:13:56;;;;;;;19.50;8.45;;;;;;;11.28;88.96;100244.44;4893038;29;20135;-83
2022/11/05 11:16:25;;;;;;;13.35;7.50;;;;;;;11.35;89.02;100250.06;4907630;29;20051;-83
2022/11/05 11:18:53;;;;;;;16.60;8.23;;;;;;;11.38;89.22;100249.81;4911962;28;20044;-83
2022/11/05 11:21:22;;;;;;;16.27;8.38;;;;;;;11.38;89.11;100257.78;4911871;28;20087;-83
2022/11/05 11:23:56;;;;;;;18.45;9.63;;;;;;;11.35;88.90;100258.03;4930423;28;20054;-84
2022/11/05 11:26:25;;;;;;;15.68;8.75;;;;;;;11.40;89.04;100255.84;4897220;29;20063;-84
2022/11/05 11:29:04;;;;;;;14.75;8.15;;;;;;;11.41;88.85;100252.22;4927407;28;20044;-83
2022/11/05 11:31:32;;;;;;;16.85;8.45;;;;;;;11.43;89.14;100253.75;4959352;28;20074;-83
2022/11/05 11:34:29;;;;;;;20.63;8.50;;;;;;;11.33;88.01;100247.53;4970930;28;20062;-83
2022/11/05 11:37:05;;;;;;;15.75;8.65;;;;;;;11.36;88.12;100257.91;4952590;28;20078;-83
2022/11/05 11:39:32;;;;;;;15.68;7.43;;;;;;;11.42;88.34;100257.41;5006172;28;20077;-83
2022/11/05 11:42:08;;;;;;;14.48;7.70;;;;;;;11.39;87.87;100260.31;4966104;28;20104;-83
2022/11/05 11:44:40;;;;;;;17.48;8.02;;;;;;;11.43;87.75;100258.25;4962990;28;20455;-83
2022/11/05 11:47:12;;;;;;;14.27;7.60;;;;;;;11.42;87.42;100252.09;4930109;28;20458;-82
2022/11/05 11:49:49;;;;;;;14.50;7.65;;;;;;;11.43;87.26;100250.28;4981365;28;20070;-83
2022/11/05 11:52:33;;;;;;;14.30;8.15;;;;;;;11.40;86.07;100248.72;4986295;28;20046;-82
2022/11/05 11:55:26;;;;;;;14.15;7.63;;;;;;;11.39;86.23;100249.66;4976367;28;20101;-83
2022/11/05 11:58:04;;;;;;;15.07;7.65;;;;;;;11.44;86.74;100255.44;4940202;28;20057;-82
2022/11/05 12:00:36;;;;;;;12.93;8.18;;;;;;;11.48;85.83;100253.38;4975828;28;20840;-83
2022/11/05 12:03:11;;;;;;;14.40;7.50;;;;;;;11.48;85.45;100256.03;4995240;28;20046;-83
2022/11/05 12:06:00;;;;;;;12.77;6.97;;;;;;;11.42;85.39;100254.75;5000687;28;20422;-83
2022/11/05 12:08:49;;;;;;;14.18;7.90;;;;;;;11.50;86.00;100252.28;4982461;28;20050;-83
2022/11/05 12:11:38;;;;;;;18.50;7.65;;;;;;;11.49;86.20;100252.38;4918497;28;20093;-83
2022/11/05 12:14:25;;;;;;;11.60;7.57;;;;;;;11.50;85.57;100248.78;4988619;28;20038;-83
2022/11/05 12:17:18;;;;;;;15.77;7.95;;;;;;;11.47;85.26;100255.19;4982611;28;20073;-82
2022/11/05 12:20:04;;;;;;;11.73;7.20;;;;;;;11.53;85.51;100253.81;4920641;28;20046;-83